createdAt,value
2023-01-13T00:00:20.446Z,100283.88
2023-01-13T00:02:49.157Z,100291.19
2023-01-13T00:05:15.324Z,100285.25
2023-01-13T00:07:41.493Z,100280.06
2023-01-13T00:10:07.610Z,100271.69
2023-01-13T00:12:33.832Z,100270.75
2023-01-13T00:15:02.320Z,100269.25
2023-01-13T00:17:28.475Z,100275.91
2023-01-13T00:19:56.083Z,100288.63
2023-01-13T00:22:22.246Z,100270.91
2023-01-13T00:24:48.390Z,100268.69
2023-01-13T00:27:14.576Z,100262.78
2023-01-13T00:29:40.957Z,100258.63
2023-01-13T00:32:07.124Z,100256.88
2023-01-13T00:34:35.983Z,100247.22
2023-01-13T00:37:03.320Z,100245.47
2023-01-13T00:39:29.507Z,100253.88
2023-01-13T00:42:01.707Z,100242.47
2023-01-13T00:44:27.937Z,100237.31
2023-01-13T00:46:54.139Z,100237.47
2023-01-13T00:49:20.334Z,100246.53
2023-01-13T00:51:46.479Z,100239.41
2023-01-13T00:54:12.615Z,100236.03
2023-01-13T00:56:40.849Z,100232.31
2023-01-13T00:59:07.356Z,100228.72
2023-01-13T01:01:33.602Z,100222.56
2023-01-13T01:04:01.208Z,100233.16
2023-01-13T01:06:27.393Z,100218.75
2023-01-13T01:08:53.568Z,100232.31
2023-01-13T01:11:19.697Z,100221.75
2023-01-13T01:13:45.877Z,100220.06
2023-01-13T01:16:13.292Z,100220.97
2023-01-13T01:18:42.392Z,100216.75
2023-01-13T01:21:08.543Z,100225.50
2023-01-13T01:23:34.706Z,100215.84
2023-01-13T01:26:00.862Z,100216.13
2023-01-13T01:28:27.039Z,100216.22
2023-01-13T01:30:53.193Z,100218.13
2023-01-13T01:33:19.350Z,100229.59
2023-01-13T01:35:45.535Z,100227.13
2023-01-13T01:38:11.642Z,100220.13
2023-01-13T01:40:37.821Z,100225.34
2023-01-13T01:43:03.977Z,100214.16
2023-01-13T01:45:30.143Z,100220.28
2023-01-13T01:47:56.350Z,100209.84
2023-01-13T01:50:22.469Z,100204.09
2023-01-13T01:52:48.684Z,100206.78
2023-01-13T01:55:14.848Z,100202.03
2023-01-13T01:57:40.987Z,100207.41
2023-01-13T02:00:07.186Z,100199.88
2023-01-13T02:02:33.448Z,100197.53
2023-01-13T02:05:03.856Z,100192.31
2023-01-13T02:07:29.996Z,100183.47
2023-01-13T02:09:56.167Z,100177.50
2023-01-13T02:12:22.304Z,100188.84
2023-01-13T02:14:48.498Z,100188.78
2023-01-13T02:17:14.678Z,100175.13
2023-01-13T02:19:42.383Z,100173.56
2023-01-13T02:22:08.525Z,100169.91
2023-01-13T02:24:34.706Z,100174.50
2023-01-13T02:27:00.879Z,100171.03
2023-01-13T02:29:27.129Z,100165.22
2023-01-13T02:31:53.561Z,100161.13
2023-01-13T02:34:19.769Z,100156.91
2023-01-13T02:36:45.894Z,100159.66
2023-01-13T02:39:12.095Z,100161.13
2023-01-13T02:41:38.226Z,100163.03
2023-01-13T02:44:04.371Z,100159.19
2023-01-13T02:46:31.571Z,100166.84
2023-01-13T02:48:57.751Z,100159.66
2023-01-13T02:51:23.906Z,100159.03
2023-01-13T02:53:51.252Z,100146.75
2023-01-13T02:56:17.407Z,100155.09
2023-01-13T02:58:43.598Z,100152.41
2023-01-13T03:01:10.042Z,100144.75
2023-01-13T03:03:36.276Z,100136.03
2023-01-13T03:06:02.444Z,100141.38
2023-01-13T03:08:28.634Z,100132.91
2023-01-13T03:10:54.948Z,100130.59
2023-01-13T03:13:21.115Z,100125.38
2023-01-13T03:15:47.336Z,100122.91
2023-01-13T03:18:13.460Z,100122.31
2023-01-13T03:20:39.649Z,100133.88
2023-01-13T03:23:05.854Z,100128.88
2023-01-13T03:25:32.004Z,100120.19
2023-01-13T03:27:58.195Z,100114.91
2023-01-13T03:30:24.609Z,100106.34
2023-01-13T03:32:50.831Z,100112.53
2023-01-13T03:35:17.011Z,100116.59
2023-01-13T03:37:43.173Z,100099.19
2023-01-13T03:40:09.331Z,100099.25
2023-01-13T03:42:35.469Z,100099.03
2023-01-13T03:45:01.618Z,100104.69
2023-01-13T03:47:27.866Z,100100.06
2023-01-13T03:49:54.091Z,100094.69
2023-01-13T03:52:20.334Z,100087.50
2023-01-13T03:54:50.391Z,100099.63
2023-01-13T03:57:16.587Z,100094.78
2023-01-13T03:59:42.764Z,100079.13
2023-01-13T04:02:09.050Z,100082.94
2023-01-13T04:04:39.520Z,100082.69
2023-01-13T04:07:05.735Z,100094.97
2023-01-13T04:09:31.964Z,100080.69
2023-01-13T04:11:58.205Z,100089.28
2023-01-13T04:14:25.383Z,100078.09
2023-01-13T04:16:51.519Z,100076.84
2023-01-13T04:19:18.367Z,100087.19
2023-01-13T04:21:44.547Z,100085.56
2023-01-13T04:24:10.841Z,100075.44
2023-01-13T04:26:37.379Z,100086.78
2023-01-13T04:29:03.748Z,100078.13
2023-01-13T04:31:30.119Z,100076.19
2023-01-13T04:33:56.253Z,100080.06
2023-01-13T04:36:22.477Z,100070.56
2023-01-13T04:38:48.655Z,100062.66
2023-01-13T04:41:14.983Z,100070.47
2023-01-13T04:43:41.160Z,100075.59
2023-01-13T04:46:07.438Z,100069.56
2023-01-13T04:48:33.763Z,100069.56
2023-01-13T04:50:59.897Z,100079.91
2023-01-13T04:53:26.100Z,100071.50
2023-01-13T04:55:52.266Z,100069.13
2023-01-13T04:58:18.687Z,100070.16
2023-01-13T05:00:44.881Z,100062.16
2023-01-13T05:03:11.112Z,100060.47
2023-01-13T05:05:37.308Z,100074.53
2023-01-13T05:08:03.517Z,100052.50
2023-01-13T05:10:29.677Z,100063.75
2023-01-13T05:12:55.999Z,100062.84
2023-01-13T05:15:22.296Z,100061.47
2023-01-13T05:17:48.512Z,100061.41
2023-01-13T05:20:14.699Z,100055.84
2023-01-13T05:22:40.886Z,100056.66
2023-01-13T05:25:08.128Z,100060.91
2023-01-13T05:27:34.263Z,100055.97
2023-01-13T05:30:00.456Z,100042.72
2023-01-13T05:32:28.978Z,100050.63
2023-01-13T05:34:55.177Z,100041.88
2023-01-13T05:37:21.341Z,100045.84
2023-01-13T05:39:50.250Z,100052.97
2023-01-13T05:42:18.731Z,100037.31
2023-01-13T05:44:44.941Z,100029.16
2023-01-13T05:47:13.169Z,100033.78
2023-01-13T05:49:41.504Z,100029.81
2023-01-13T05:52:08.340Z,100034.06
2023-01-13T05:54:34.483Z,100046.25
2023-01-13T05:57:00.789Z,100049.63
2023-01-13T05:59:26.971Z,100039.50
2023-01-13T06:01:53.225Z,100048.94
2023-01-13T06:04:19.473Z,100049.88
2023-01-13T06:06:45.681Z,100040.53
2023-01-13T06:09:11.891Z,100045.75
2023-01-13T06:11:38.229Z,100046.59
2023-01-13T06:14:04.372Z,100061.22
2023-01-13T06:16:31.804Z,100046.72
2023-01-13T06:18:58.223Z,100052.13
2023-01-13T06:21:27.318Z,100054.34
2023-01-13T06:23:54.776Z,100071.50
2023-01-13T06:26:21.168Z,100062.94
2023-01-13T06:28:47.370Z,100061.88
2023-01-13T06:31:13.597Z,100065.78
2023-01-13T06:33:39.781Z,100072.22
2023-01-13T06:36:05.952Z,100067.31
2023-01-13T06:38:32.151Z,100075.03
2023-01-13T06:40:58.335Z,100074.84
2023-01-13T06:43:24.584Z,100072.91
2023-01-13T06:45:50.822Z,100065.03
2023-01-13T06:48:17.052Z,100072.28
2023-01-13T06:50:43.287Z,100076.25
2023-01-13T06:53:09.520Z,100081.47
2023-01-13T06:55:35.696Z,100086.78
2023-01-13T06:58:01.866Z,100100.88
2023-01-13T07:00:28.074Z,100107.13
2023-01-13T07:02:54.322Z,100128.03
2023-01-13T07:05:20.538Z,100130.00
2023-01-13T07:07:46.687Z,100135.41
2023-01-13T07:10:12.844Z,100131.88
2023-01-13T07:12:39.038Z,100137.38
2023-01-13T07:15:05.198Z,100132.53
2023-01-13T07:17:31.368Z,100133.38
2023-01-13T07:22:48.172Z,100144.91
2023-01-13T07:25:14.361Z,100144.00
2023-01-13T07:27:40.542Z,100151.72
2023-01-13T07:30:06.772Z,100155.31
2023-01-13T07:32:32.996Z,100167.34
2023-01-13T07:34:59.228Z,100173.56
2023-01-13T07:37:25.665Z,100172.88
2023-01-13T07:39:53.024Z,100189.31
2023-01-13T07:42:19.232Z,100179.06
2023-01-13T07:44:45.433Z,100184.03
2023-01-13T07:47:11.602Z,100180.63
2023-01-13T07:49:37.868Z,100169.06
2023-01-13T07:52:04.152Z,100171.03
2023-01-13T07:54:40.170Z,100174.50
2023-01-13T07:57:07.062Z,100176.53
2023-01-13T07:59:33.265Z,100178.34
2023-01-13T08:02:02.813Z,100173.13
2023-01-13T08:04:29.189Z,100177.78
2023-01-13T08:06:55.525Z,100192.53
2023-01-13T08:09:29.301Z,100202.91
2023-01-13T08:11:55.488Z,100190.13
2023-01-13T08:14:21.720Z,100204.19
2023-01-13T08:16:47.918Z,100206.91
2023-01-13T08:19:14.108Z,100209.78
2023-01-13T08:21:40.309Z,100225.38
2023-01-13T08:24:07.934Z,100233.25
2023-01-13T08:26:34.105Z,100225.75
2023-01-13T08:29:00.382Z,100235.84
2023-01-13T08:31:26.582Z,100234.84
2023-01-13T08:33:52.811Z,100236.03
2023-01-13T08:36:19.033Z,100243.84
2023-01-13T08:38:45.230Z,100248.97
2023-01-13T08:41:11.440Z,100260.47
2023-01-13T08:43:37.687Z,100267.88
2023-01-13T08:46:05.163Z,100278.16
2023-01-13T08:48:31.770Z,100278.53
2023-01-13T08:50:58.596Z,100297.13
2023-01-13T08:53:24.813Z,100285.09
2023-01-13T08:55:51.031Z,100286.41
2023-01-13T08:58:20.049Z,100292.59
2023-01-13T09:00:46.265Z,100285.69
2023-01-13T09:03:12.472Z,100289.22
2023-01-13T09:05:38.654Z,100285.03
2023-01-13T09:08:04.936Z,100298.75
2023-01-13T09:10:31.077Z,100293.34
2023-01-13T09:12:59.783Z,100305.19
2023-01-13T09:15:26.242Z,100299.72
2023-01-13T09:17:52.532Z,100302.00
2023-01-13T09:20:18.703Z,100310.53
2023-01-13T09:22:46.112Z,100309.16
2023-01-13T09:25:12.306Z,100312.72
2023-01-13T09:27:44.422Z,100318.50
2023-01-13T09:30:10.590Z,100323.88
2023-01-13T09:32:36.815Z,100326.88
2023-01-13T09:35:03.111Z,100323.19
2023-01-13T09:37:30.776Z,100337.06
2023-01-13T09:39:56.958Z,100340.97
2023-01-13T09:42:23.174Z,100326.94
2023-01-13T09:44:49.379Z,100318.56
2023-01-13T09:47:15.566Z,100321.09
2023-01-13T09:49:41.702Z,100327.91
2023-01-13T09:52:07.830Z,100343.75
2023-01-13T09:54:34.047Z,100349.13
2023-01-13T09:57:00.269Z,100350.13
2023-01-13T09:59:26.453Z,100349.72
2023-01-13T10:01:53.813Z,100331.69
2023-01-13T10:04:20.076Z,100347.88
2023-01-13T10:06:46.279Z,100347.00
2023-01-13T10:09:12.539Z,100349.53
2023-01-13T10:11:41.501Z,100355.59
2023-01-13T10:14:07.701Z,100362.63
2023-01-13T10:16:33.939Z,100352.84
2023-01-13T10:19:00.196Z,100355.53
2023-01-13T10:21:26.414Z,100356.31
2023-01-13T10:23:52.602Z,100346.25
2023-01-13T10:26:18.874Z,100341.16
2023-01-13T10:28:46.976Z,100344.75
2023-01-13T10:31:13.193Z,100342.84
2023-01-13T10:33:39.412Z,100336.44
2023-01-13T10:36:05.581Z,100340.09
2023-01-13T10:38:31.743Z,100344.75
2023-01-13T10:40:57.986Z,100348.13
2023-01-13T10:43:25.683Z,100355.69
2023-01-13T10:45:51.820Z,100361.16
2023-01-13T10:48:18.094Z,100364.81
2023-01-13T10:50:44.277Z,100369.09
2023-01-13T10:53:14.727Z,100365.72
2023-01-13T10:55:40.923Z,100362.56
2023-01-13T10:58:07.115Z,100360.66
2023-01-13T11:00:33.300Z,100367.03
2023-01-13T11:02:59.466Z,100355.63
2023-01-13T11:05:25.670Z,100372.31
2023-01-13T11:07:51.895Z,100369.22
2023-01-13T11:10:19.286Z,100378.00
2023-01-13T11:12:45.518Z,100367.28
2023-01-13T11:15:14.548Z,100368.44
2023-01-13T11:17:40.709Z,100360.63
2023-01-13T11:20:06.974Z,100356.81
2023-01-13T11:22:33.229Z,100359.69
2023-01-13T11:24:59.477Z,100362.91
2023-01-13T11:27:25.728Z,100358.66
2023-01-13T11:29:51.890Z,100344.91
2023-01-13T11:32:18.096Z,100347.09
2023-01-13T11:34:44.341Z,100342.00
2023-01-13T11:37:10.527Z,100353.59
2023-01-13T11:39:36.782Z,100357.81
2023-01-13T11:42:04.164Z,100347.56
2023-01-13T11:44:30.312Z,100346.44
2023-01-13T11:46:56.568Z,100343.22
2023-01-13T11:49:22.769Z,100341.19
2023-01-13T11:51:48.915Z,100339.66
2023-01-13T11:54:15.085Z,100359.69
2023-01-13T11:56:41.270Z,100354.84
2023-01-13T11:59:07.442Z,100348.13
2023-01-13T12:01:33.731Z,100362.44
2023-01-13T12:03:59.988Z,100357.47
2023-01-13T12:06:26.212Z,100373.66
2023-01-13T12:08:52.440Z,100366.31
2023-01-13T12:11:18.660Z,100362.22
2023-01-13T12:13:44.862Z,100364.66
2023-01-13T12:16:11.084Z,100360.69
2023-01-13T12:18:39.762Z,100361.44
2023-01-13T12:21:05.910Z,100367.78
2023-01-13T12:23:32.073Z,100372.75
2023-01-13T12:25:59.491Z,100378.94
2023-01-13T12:28:28.130Z,100377.91
2023-01-13T12:30:54.335Z,100381.25
2023-01-13T12:33:20.528Z,100400.09
2023-01-13T12:35:46.771Z,100386.13
2023-01-13T12:38:13.013Z,100401.34
2023-01-13T12:40:39.232Z,100388.81
2023-01-13T12:43:05.441Z,100391.50
2023-01-13T12:45:33.665Z,100391.69
2023-01-13T12:47:59.913Z,100385.47
2023-01-13T12:50:26.178Z,100376.13
2023-01-13T12:52:52.440Z,100368.56
2023-01-13T12:55:18.638Z,100375.81
2023-01-13T12:57:44.777Z,100360.28
2023-01-13T13:00:15.264Z,100360.63
2023-01-13T13:02:41.410Z,100361.56
2023-01-13T13:05:07.745Z,100371.13
2023-01-13T13:07:34.087Z,100374.63
2023-01-13T13:10:00.281Z,100375.75
2023-01-13T13:12:29.515Z,100377.47
2023-01-13T13:14:55.714Z,100382.00
2023-01-13T13:17:21.943Z,100372.19
2023-01-13T13:19:48.073Z,100371.63
2023-01-13T13:22:14.205Z,100375.97
2023-01-13T13:24:40.436Z,100379.50
2023-01-13T13:27:06.628Z,100382.09
2023-01-13T13:29:32.896Z,100396.06
2023-01-13T13:32:01.477Z,100409.66
2023-01-13T13:34:27.694Z,100412.06
2023-01-13T13:36:53.874Z,100404.88
2023-01-13T13:39:20.095Z,100417.66
2023-01-13T13:41:46.329Z,100413.38
2023-01-13T13:44:12.503Z,100403.88
2023-01-13T13:46:39.728Z,100405.97
2023-01-13T13:49:05.890Z,100408.19
2023-01-13T13:51:32.054Z,100412.91
2023-01-13T13:53:59.775Z,100415.91
2023-01-13T13:56:25.949Z,100427.69
2023-01-13T13:58:52.196Z,100435.16
2023-01-13T14:01:18.703Z,100445.84
2023-01-13T14:03:49.487Z,100455.75
2023-01-13T14:06:15.656Z,100456.81
2023-01-13T14:08:46.746Z,100484.25
2023-01-13T14:11:13.008Z,100473.28
2023-01-13T14:13:39.218Z,100494.66
2023-01-13T14:16:05.418Z,100504.78
2023-01-13T14:18:32.621Z,100504.13
2023-01-13T14:20:58.808Z,100542.88
2023-01-13T14:23:25.002Z,100489.28
2023-01-13T14:25:51.231Z,100488.22
2023-01-13T14:28:17.378Z,100485.72
2023-01-13T14:30:43.540Z,100479.38
2023-01-13T14:33:09.727Z,100478.81
2023-01-13T14:35:35.953Z,100473.13
2023-01-13T14:38:02.240Z,100473.53
2023-01-13T14:40:28.460Z,100480.56
2023-01-13T14:42:54.750Z,100478.72
2023-01-13T14:45:20.910Z,100474.44
2023-01-13T14:47:47.124Z,100471.81
2023-01-13T14:50:13.361Z,100475.44
2023-01-13T14:52:39.518Z,100485.91
2023-01-13T14:55:05.835Z,100490.03
2023-01-13T14:57:32.288Z,100496.72
2023-01-13T14:59:58.438Z,100491.41
2023-01-13T15:02:24.738Z,100503.31
2023-01-13T15:04:50.951Z,100508.50
2023-01-13T15:07:17.203Z,100504.19
2023-01-13T15:09:43.384Z,100524.72
2023-01-13T15:12:09.602Z,100534.88
2023-01-13T15:14:35.818Z,100536.59
2023-01-13T15:17:02.047Z,100537.63
2023-01-13T15:19:28.254Z,100541.03
2023-01-13T15:21:56.541Z,100551.75
2023-01-13T15:24:22.741Z,100563.94
2023-01-13T15:26:49.027Z,100583.88
2023-01-13T15:29:15.205Z,100583.28
2023-01-13T15:31:41.393Z,100583.47
2023-01-13T15:34:07.620Z,100591.13
2023-01-13T15:36:33.820Z,100588.91
2023-01-13T15:39:00.077Z,100589.06
2023-01-13T15:41:26.321Z,100594.84
2023-01-13T15:43:52.526Z,100598.06
2023-01-13T15:46:18.778Z,100610.38
2023-01-13T15:48:45.049Z,100619.25
2023-01-13T15:51:11.339Z,100626.03
2023-01-13T15:53:37.691Z,100623.53
2023-01-13T15:56:03.890Z,100626.84
2023-01-13T15:58:30.105Z,100622.91
2023-01-13T16:00:56.471Z,100621.88
2023-01-13T16:03:22.684Z,100617.34
2023-01-13T16:05:48.920Z,100625.22
2023-01-13T16:08:15.147Z,100624.28
2023-01-13T16:10:41.335Z,100625.91
2023-01-13T16:13:07.574Z,100625.22
2023-01-13T16:15:33.812Z,100629.91
2023-01-13T16:18:00.065Z,100636.59
2023-01-13T16:20:26.327Z,100634.91
2023-01-13T16:22:52.511Z,100631.94
2023-01-13T16:25:18.712Z,100641.66
2023-01-13T16:27:44.884Z,100639.56
2023-01-13T16:30:11.268Z,100646.44
2023-01-13T16:32:37.481Z,100658.25
2023-01-13T16:35:03.859Z,100666.81
2023-01-13T16:37:30.100Z,100667.03
2023-01-13T16:39:56.436Z,100675.84
2023-01-13T16:42:22.622Z,100676.59
2023-01-13T16:44:49.078Z,100700.16
2023-01-13T16:47:15.258Z,100694.16
2023-01-13T16:49:41.526Z,100703.97
2023-01-13T16:52:07.719Z,100708.94
2023-01-13T16:54:33.957Z,100717.34
2023-01-13T16:57:00.110Z,100729.47
2023-01-13T16:59:26.306Z,100724.50
2023-01-13T17:01:52.627Z,100722.91
2023-01-13T17:04:18.936Z,100730.91
2023-01-13T17:06:45.282Z,100736.84
2023-01-13T17:09:11.534Z,100735.56
2023-01-13T17:11:46.005Z,100750.44
2023-01-13T17:14:19.199Z,100749.81
2023-01-13T17:16:45.831Z,100755.13
2023-01-13T17:19:12.509Z,100750.09
2023-01-13T17:21:38.644Z,100748.84
2023-01-13T17:24:04.852Z,100753.47
2023-01-13T17:26:31.116Z,100752.66
2023-01-13T17:28:57.304Z,100753.69
2023-01-13T17:31:23.466Z,100765.88
2023-01-13T17:33:49.932Z,100757.00
2023-01-13T17:36:16.110Z,100768.41
2023-01-13T17:38:42.273Z,100760.56
2023-01-13T17:41:08.516Z,100773.78
2023-01-13T17:43:34.717Z,100771.38
2023-01-13T17:46:00.998Z,100768.31
2023-01-13T17:48:27.257Z,100771.69
2023-01-13T17:50:53.475Z,100779.69
2023-01-13T17:53:19.691Z,100777.66
2023-01-13T17:55:46.008Z,100776.81
2023-01-13T17:58:12.185Z,100784.56
2023-01-13T18:00:38.375Z,100795.06
2023-01-13T18:03:04.561Z,100785.50
2023-01-13T18:05:31.965Z,100785.28
2023-01-13T18:07:59.374Z,100794.59
2023-01-13T18:10:25.572Z,100797.06
2023-01-13T18:12:51.789Z,100793.97
2023-01-13T18:15:18.005Z,100815.56
2023-01-13T18:17:44.423Z,100808.38
2023-01-13T18:20:12.075Z,100814.22
2023-01-13T18:22:38.333Z,100823.06
2023-01-13T18:25:04.739Z,100828.06
2023-01-13T18:27:30.949Z,100834.97
2023-01-13T18:29:57.171Z,100848.56
2023-01-13T18:32:23.378Z,100852.19
2023-01-13T18:34:53.983Z,100850.44
2023-01-13T18:37:24.872Z,100850.28
2023-01-13T18:39:51.222Z,100852.19
2023-01-13T18:42:19.274Z,100856.56
2023-01-13T18:44:45.481Z,100861.13
2023-01-13T18:47:11.710Z,100873.16
2023-01-13T18:49:37.949Z,100870.56
2023-01-13T18:52:04.181Z,100882.13
2023-01-13T18:54:30.403Z,100881.25
2023-01-13T18:56:56.554Z,100886.31
2023-01-13T18:59:22.690Z,100889.59
2023-01-13T19:01:48.971Z,100884.56
2023-01-13T19:04:15.201Z,100886.31
2023-01-13T19:06:41.421Z,100895.78
2023-01-13T19:09:07.586Z,100896.09
2023-01-13T19:11:33.799Z,100905.47
2023-01-13T19:14:00.003Z,100894.25
2023-01-13T19:16:26.300Z,100905.63
2023-01-13T19:18:52.524Z,100907.28
2023-01-13T19:21:18.760Z,100908.31
2023-01-13T19:23:44.974Z,100905.91
2023-01-13T19:26:11.154Z,100897.22
2023-01-13T19:28:37.381Z,100904.31
2023-01-13T19:31:03.537Z,100920.00
2023-01-13T19:33:30.595Z,100924.22
2023-01-13T19:35:56.760Z,100933.75
2023-01-13T19:38:22.949Z,100929.53
2023-01-13T19:40:49.182Z,100939.19
2023-01-13T19:43:15.383Z,100939.41
2023-01-13T19:45:41.562Z,100937.88
2023-01-13T19:48:07.789Z,100948.38
2023-01-13T19:50:33.935Z,100946.63
2023-01-13T19:53:00.145Z,100962.84
2023-01-13T19:55:26.397Z,100956.16
2023-01-13T19:57:52.609Z,100959.56
2023-01-13T20:00:18.847Z,100957.13
2023-01-13T20:02:47.170Z,100957.97
2023-01-13T20:05:13.439Z,100960.53
2023-01-13T20:07:39.617Z,100957.75
2023-01-13T20:10:05.809Z,100975.16
2023-01-13T20:12:32.167Z,100982.06
2023-01-13T20:14:58.336Z,100971.63
2023-01-13T20:17:25.577Z,100980.44
2023-01-13T20:19:51.773Z,100976.41
2023-01-13T20:22:18.131Z,100978.28
2023-01-13T20:24:44.332Z,100979.28
2023-01-13T20:27:10.609Z,100980.13
2023-01-13T20:29:36.801Z,100985.28
2023-01-13T20:32:03.222Z,100982.69
2023-01-13T20:34:29.448Z,100988.78
2023-01-13T20:36:55.592Z,100987.84
2023-01-13T20:39:21.810Z,100987.06
2023-01-13T20:41:47.994Z,100987.06
2023-01-13T20:44:14.151Z,100984.41
2023-01-13T20:46:40.370Z,100989.66
2023-01-13T20:49:06.762Z,100991.50
2023-01-13T20:51:32.965Z,100993.25
2023-01-13T20:53:59.139Z,100992.31
2023-01-13T20:56:25.319Z,100994.84
2023-01-13T20:58:51.451Z,100994.75
2023-01-13T21:01:17.776Z,101003.50
2023-01-13T21:03:45.107Z,100999.31
2023-01-13T21:06:11.436Z,101011.28
2023-01-13T21:08:37.716Z,100999.25
2023-01-13T21:11:04.356Z,100994.91
2023-01-13T21:13:30.701Z,100986.56
2023-01-13T21:15:56.935Z,100993.38
2023-01-13T21:18:23.172Z,100984.84
2023-01-13T21:20:49.385Z,100980.66
2023-01-13T21:23:15.561Z,100982.41
2023-01-13T21:25:41.800Z,100978.03
2023-01-13T21:28:08.090Z,100977.16
2023-01-13T21:30:34.549Z,100973.06
2023-01-13T21:33:00.715Z,100983.19
2023-01-13T21:35:26.927Z,100987.50
2023-01-13T21:37:53.151Z,100992.53
2023-01-13T21:40:19.405Z,100998.59
2023-01-13T21:42:45.595Z,101000.34
2023-01-13T21:45:11.752Z,101005.41
2023-01-13T21:47:38.034Z,101008.84
2023-01-13T21:50:04.256Z,101007.84
2023-01-13T21:52:30.463Z,101007.78
2023-01-13T21:54:56.678Z,101012.13
2023-01-13T21:57:22.937Z,101012.97
2023-01-13T21:59:49.186Z,101015.75
2023-01-13T22:02:23.672Z,101020.13
2023-01-13T22:04:51.265Z,101019.41
2023-01-13T22:07:18.741Z,101022.63
2023-01-13T22:09:47.011Z,101028.06
2023-01-13T22:12:13.214Z,101025.63
2023-01-13T22:14:40.467Z,101027.41
2023-01-13T22:17:06.687Z,101034.19
2023-01-13T22:19:32.855Z,101042.88
2023-01-13T22:21:59.100Z,101039.13
2023-01-13T22:24:25.320Z,101025.97
2023-01-13T22:26:53.904Z,101024.94
2023-01-13T22:29:20.163Z,101028.50
2023-01-13T22:31:46.417Z,101036.09
2023-01-13T22:34:12.643Z,101038.53
2023-01-13T22:36:38.855Z,101035.91
2023-01-13T22:39:05.008Z,101056.81
2023-01-13T22:41:32.425Z,101054.13
2023-01-13T22:43:58.660Z,101062.78
2023-01-13T22:46:24.867Z,101069.75
2023-01-13T22:48:52.446Z,101073.34
2023-01-13T22:51:23.068Z,101073.44
2023-01-13T22:53:49.253Z,101075.31
2023-01-13T22:56:15.418Z,101069.41
2023-01-13T22:58:43.200Z,101073.16
2023-01-13T23:01:09.445Z,101062.34
2023-01-13T23:03:35.710Z,101078.63
2023-01-13T23:06:01.975Z,101081.34
2023-01-13T23:08:29.737Z,101085.06
2023-01-13T23:10:58.178Z,101090.47
2023-01-13T23:13:24.416Z,101090.69
2023-01-13T23:15:51.782Z,101093.41
2023-01-13T23:18:17.960Z,101096.09
2023-01-13T23:20:45.611Z,101078.91
2023-01-13T23:23:11.796Z,101083.28
2023-01-13T23:25:37.961Z,101078.97
2023-01-13T23:28:05.293Z,101096.19
2023-01-13T23:33:23.749Z,101101.34
2023-01-13T23:35:49.918Z,101092.63
2023-01-13T23:38:16.045Z,101089.19
2023-01-13T23:40:42.199Z,101102.75
2023-01-13T23:43:09.812Z,101095.75
2023-01-13T23:45:36.051Z,101098.41
2023-01-13T23:48:03.437Z,101104.34
2023-01-13T23:50:30.064Z,101103.50
2023-01-13T23:52:56.309Z,101101.75
2023-01-13T23:55:24.965Z,101101.00
2023-01-13T23:57:53.944Z,101096.47
